sensor_id;sensor_type;location;lat;lon;timestamp;temperature;humidity
72604;DHT22;60645;56.968;24.196;2023-05-01T00:00:25;4.10;75.00
72604;DHT22;60645;56.968;24.196;2023-05-01T00:02:52;4.20;75.60
72604;DHT22;60645;56.968;24.196;2023-05-01T00:05:20;4.00;75.20
72604;DHT22;60645;56.968;24.196;2023-05-01T00:07:47;3.90;75.50
72604;DHT22;60645;56.968;24.196;2023-05-01T00:10:13;3.90;75.80
72604;DHT22;60645;56.968;24.196;2023-05-01T00:12:40;4.10;76.40
72604;DHT22;60645;56.968;24.196;2023-05-01T00:15:08;3.90;76.20
72604;DHT22;60645;56.968;24.196;2023-05-01T00:17:35;4.00;75.70
72604;DHT22;60645;56.968;24.196;2023-05-01T00:20:02;4.10;76.30
72604;DHT22;60645;56.968;24.196;2023-05-01T00:22:31;4.00;75.90
72604;DHT22;60645;56.968;24.196;2023-05-01T00:24:57;4.10;75.60
72604;DHT22;60645;56.968;24.196;2023-05-01T00:27:24;3.80;75.70
72604;DHT22;60645;56.968;24.196;2023-05-01T00:29:51;3.80;75.80
72604;DHT22;60645;56.968;24.196;2023-05-01T00:32:18;3.90;76.10
72604;DHT22;60645;56.968;24.196;2023-05-01T00:34:45;3.80;76.60
72604;DHT22;60645;56.968;24.196;2023-05-01T00:37:14;3.90;76.60
72604;DHT22;60645;56.968;24.196;2023-05-01T00:39:41;3.90;75.90
72604;DHT22;60645;56.968;24.196;2023-05-01T00:42:08;3.70;76.20
72604;DHT22;60645;56.968;24.196;2023-05-01T00:44:35;3.70;75.80
72604;DHT22;60645;56.968;24.196;2023-05-01T00:47:02;3.70;75.70
72604;DHT22;60645;56.968;24.196;2023-05-01T00:49:30;3.90;76.20
72604;DHT22;60645;56.968;24.196;2023-05-01T00:51:57;3.90;76.10
72604;DHT22;60645;56.968;24.196;2023-05-01T00:54:24;3.60;75.90
72604;DHT22;60645;56.968;24.196;2023-05-01T00:56:54;3.70;75.80
72604;DHT22;60645;56.968;24.196;2023-05-01T00:59:21;3.80;76.50
72604;DHT22;60645;56.968;24.196;2023-05-01T01:01:48;3.70;76.70
72604;DHT22;60645;56.968;24.196;2023-05-01T01:04:16;3.70;76.00
72604;DHT22;60645;56.968;24.196;2023-05-01T01:06:54;3.60;76.50
72604;DHT22;60645;56.968;24.196;2023-05-01T01:15:01;3.50;76.70
72604;DHT22;60645;56.968;24.196;2023-05-01T01:34:11;3.50;76.70
72604;DHT22;60645;56.968;24.196;2023-05-01T01:37:03;3.50;76.80
72604;DHT22;60645;56.968;24.196;2023-05-01T01:39:40;3.50;77.10
72604;DHT22;60645;56.968;24.196;2023-05-01T01:42:14;3.40;77.10
72604;DHT22;60645;56.968;24.196;2023-05-01T01:44:52;3.40;77.40
72604;DHT22;60645;56.968;24.196;2023-05-01T01:47:24;3.60;77.40
72604;DHT22;60645;56.968;24.196;2023-05-01T01:50:01;3.40;77.30
72604;DHT22;60645;56.968;24.196;2023-05-01T01:52:30;3.50;77.40
72604;DHT22;60645;56.968;24.196;2023-05-01T01:55:05;3.50;77.60
72604;DHT22;60645;56.968;24.196;2023-05-01T01:57:38;3.40;77.50
72604;DHT22;60645;56.968;24.196;2023-05-01T02:00:08;3.20;77.70
72604;DHT22;60645;56.968;24.196;2023-05-01T02:02:38;3.30;77.40
72604;DHT22;60645;56.968;24.196;2023-05-01T02:05:12;3.40;77.70
72604;DHT22;60645;56.968;24.196;2023-05-01T02:07:41;3.30;78.10
72604;DHT22;60645;56.968;24.196;2023-05-01T02:10:11;3.10;77.80
72604;DHT22;60645;56.968;24.196;2023-05-01T02:12:41;3.20;78.10
72604;DHT22;60645;56.968;24.196;2023-05-01T02:15:09;3.10;77.70
72604;DHT22;60645;56.968;24.196;2023-05-01T02:17:37;3.10;78.00
72604;DHT22;60645;56.968;24.196;2023-05-01T02:20:07;2.90;78.00
72604;DHT22;60645;56.968;24.196;2023-05-01T02:22:36;2.90;78.10
72604;DHT22;60645;56.968;24.196;2023-05-01T02:25:06;2.90;78.10
72604;DHT22;60645;56.968;24.196;2023-05-01T02:27:37;2.90;78.60
72604;DHT22;60645;56.968;24.196;2023-05-01T02:30:04;3.00;78.80
72604;DHT22;60645;56.968;24.196;2023-05-01T02:32:32;2.80;78.60
72604;DHT22;60645;56.968;24.196;2023-05-01T02:35:00;2.80;79.10
72604;DHT22;60645;56.968;24.196;2023-05-01T02:37:27;2.80;79.20
72604;DHT22;60645;56.968;24.196;2023-05-01T02:39:56;3.00;78.80
72604;DHT22;60645;56.968;24.196;2023-05-01T02:42:25;2.90;79.30
72604;DHT22;60645;56.968;24.196;2023-05-01T02:44:59;2.80;78.90
72604;DHT22;60645;56.968;24.196;2023-05-01T02:47:27;2.90;79.10
72604;DHT22;60645;56.968;24.196;2023-05-01T02:49:56;2.90;79.70
72604;DHT22;60645;56.968;24.196;2023-05-01T02:52:25;3.10;79.30
72604;DHT22;60645;56.968;24.196;2023-05-01T02:54:52;2.90;78.90
72604;DHT22;60645;56.968;24.196;2023-05-01T02:57:19;3.20;78.30
72604;DHT22;60645;56.968;24.196;2023-05-01T02:59:46;3.40;78.00
72604;DHT22;60645;56.968;24.196;2023-05-01T03:02:13;3.60;77.30
72604;DHT22;60645;56.968;24.196;2023-05-01T03:04:42;3.90;76.70
72604;DHT22;60645;56.968;24.196;2023-05-01T03:07:09;3.90;75.80
72604;DHT22;60645;56.968;24.196;2023-05-01T03:09:36;4.00;75.80
72604;DHT22;60645;56.968;24.196;2023-05-01T03:12:03;4.10;75.00
72604;DHT22;60645;56.968;24.196;2023-05-01T03:14:31;4.20;74.60
72604;DHT22;60645;56.968;24.196;2023-05-01T03:16:58;4.60;73.00
72604;DHT22;60645;56.968;24.196;2023-05-01T03:19:25;4.70;71.50
72604;DHT22;60645;56.968;24.196;2023-05-01T03:21:52;5.10;71.20
72604;DHT22;60645;56.968;24.196;2023-05-01T03:24:19;5.80;68.60
72604;DHT22;60645;56.968;24.196;2023-05-01T03:26:47;6.60;65.40
72604;DHT22;60645;56.968;24.196;2023-05-01T03:29:14;7.50;63.20
72604;DHT22;60645;56.968;24.196;2023-05-01T03:31:41;8.20;61.00
72604;DHT22;60645;56.968;24.196;2023-05-01T03:34:07;8.90;58.40
72604;DHT22;60645;56.968;24.196;2023-05-01T03:36:35;9.60;56.20
72604;DHT22;60645;56.968;24.196;2023-05-01T03:39:02;9.80;55.90
72604;DHT22;60645;56.968;24.196;2023-05-01T03:41:30;10.20;54.70
72604;DHT22;60645;56.968;24.196;2023-05-01T03:43:57;10.50;53.10
72604;DHT22;60645;56.968;24.196;2023-05-01T03:46:24;11.00;52.10
72604;DHT22;60645;56.968;24.196;2023-05-01T03:48:51;11.10;51.60
72604;DHT22;60645;56.968;24.196;2023-05-01T03:51:18;11.40;51.90
72604;DHT22;60645;56.968;24.196;2023-05-01T03:53:44;11.10;51.70
72604;DHT22;60645;56.968;24.196;2023-05-01T03:56:12;10.50;54.10
72604;DHT22;60645;56.968;24.196;2023-05-01T03:58:38;10.10;54.70
72604;DHT22;60645;56.968;24.196;2023-05-01T04:01:05;9.80;55.20
72604;DHT22;60645;56.968;24.196;2023-05-01T04:03:32;9.80;54.40
72604;DHT22;60645;56.968;24.196;2023-05-01T04:05:59;9.90;54.40
72604;DHT22;60645;56.968;24.196;2023-05-01T04:08:26;9.90;54.10
72604;DHT22;60645;56.968;24.196;2023-05-01T04:10:53;10.10;55.50
72604;DHT22;60645;56.968;24.196;2023-05-01T04:13:20;10.40;55.20
72604;DHT22;60645;56.968;24.196;2023-05-01T04:15:47;10.60;53.40
72604;DHT22;60645;56.968;24.196;2023-05-01T04:18:14;10.50;53.30
72604;DHT22;60645;56.968;24.196;2023-05-01T04:20:41;10.80;53.70
72604;DHT22;60645;56.968;24.196;2023-05-01T04:23:08;10.90;53.80
72604;DHT22;60645;56.968;24.196;2023-05-01T04:25:36;10.90;51.90
72604;DHT22;60645;56.968;24.196;2023-05-01T04:28:03;11.00;51.10
72604;DHT22;60645;56.968;24.196;2023-05-01T04:30:30;11.40;51.70
72604;DHT22;60645;56.968;24.196;2023-05-01T04:32:57;11.90;51.80
72604;DHT22;60645;56.968;24.196;2023-05-01T04:35:24;12.20;50.20
72604;DHT22;60645;56.968;24.196;2023-05-01T04:37:51;12.60;49.50
72604;DHT22;60645;56.968;24.196;2023-05-01T04:40:18;12.90;48.40
72604;DHT22;60645;56.968;24.196;2023-05-01T04:42:45;13.20;47.90
72604;DHT22;60645;56.968;24.196;2023-05-01T04:45:12;13.10;48.20
72604;DHT22;60645;56.968;24.196;2023-05-01T04:47:39;13.00;47.70
72604;DHT22;60645;56.968;24.196;2023-05-01T04:50:06;13.50;46.40
72604;DHT22;60645;56.968;24.196;2023-05-01T04:52:33;13.70;45.40
72604;DHT22;60645;56.968;24.196;2023-05-01T04:55:01;13.50;46.50
72604;DHT22;60645;56.968;24.196;2023-05-01T04:57:29;13.90;45.90
72604;DHT22;60645;56.968;24.196;2023-05-01T04:59:56;13.90;45.90
72604;DHT22;60645;56.968;24.196;2023-05-01T05:02:24;14.20;45.80
72604;DHT22;60645;56.968;24.196;2023-05-01T05:04:51;14.20;45.10
72604;DHT22;60645;56.968;24.196;2023-05-01T05:07:19;14.50;44.30
72604;DHT22;60645;56.968;24.196;2023-05-01T05:09:46;14.90;43.50
72604;DHT22;60645;56.968;24.196;2023-05-01T05:12:13;15.30;42.80
72604;DHT22;60645;56.968;24.196;2023-05-01T05:14:41;15.50;43.30
72604;DHT22;60645;56.968;24.196;2023-05-01T05:17:08;15.70;41.40
72604;DHT22;60645;56.968;24.196;2023-05-01T05:19:35;15.90;41.90
72604;DHT22;60645;56.968;24.196;2023-05-01T05:22:02;15.90;41.80
72604;DHT22;60645;56.968;24.196;2023-05-01T05:24:30;15.80;42.00
72604;DHT22;60645;56.968;24.196;2023-05-01T05:26:57;16.10;40.90
72604;DHT22;60645;56.968;24.196;2023-05-01T05:29:24;16.40;41.10
72604;DHT22;60645;56.968;24.196;2023-05-01T05:31:50;16.70;40.60
72604;DHT22;60645;56.968;24.196;2023-05-01T05:34:17;17.00;39.60
72604;DHT22;60645;56.968;24.196;2023-05-01T05:36:45;17.10;39.70
72604;DHT22;60645;56.968;24.196;2023-05-01T05:39:12;17.30;39.30
72604;DHT22;60645;56.968;24.196;2023-05-01T05:41:39;17.60;39.40
72604;DHT22;60645;56.968;24.196;2023-05-01T05:44:06;17.10;38.90
72604;DHT22;60645;56.968;24.196;2023-05-01T05:46:33;17.80;39.80
72604;DHT22;60645;56.968;24.196;2023-05-01T05:49:00;18.40;37.60
72604;DHT22;60645;56.968;24.196;2023-05-01T05:51:26;17.90;38.20
72604;DHT22;60645;56.968;24.196;2023-05-01T05:53:53;18.60;37.80
72604;DHT22;60645;56.968;24.196;2023-05-01T05:56:20;18.70;36.90
72604;DHT22;60645;56.968;24.196;2023-05-01T05:58:47;19.10;36.30
72604;DHT22;60645;56.968;24.196;2023-05-01T06:01:14;19.00;36.80
72604;DHT22;60645;56.968;24.196;2023-05-01T06:03:41;19.20;37.20
72604;DHT22;60645;56.968;24.196;2023-05-01T06:06:08;19.10;36.90
72604;DHT22;60645;56.968;24.196;2023-05-01T06:08:36;19.00;37.20
72604;DHT22;60645;56.968;24.196;2023-05-01T06:11:03;19.40;37.00
72604;DHT22;60645;56.968;24.196;2023-05-01T06:13:30;19.40;37.10
72604;DHT22;60645;56.968;24.196;2023-05-01T06:15:58;19.90;35.70
72604;DHT22;60645;56.968;24.196;2023-05-01T06:18:26;20.40;35.80
72604;DHT22;60645;56.968;24.196;2023-05-01T06:20:53;20.70;35.20
72604;DHT22;60645;56.968;24.196;2023-05-01T06:23:20;20.70;35.20
72604;DHT22;60645;56.968;24.196;2023-05-01T06:25:46;20.70;35.00
72604;DHT22;60645;56.968;24.196;2023-05-01T06:30:42;21.30;33.90
72604;DHT22;60645;56.968;24.196;2023-05-01T06:33:09;21.60;34.00
72604;DHT22;60645;56.968;24.196;2023-05-01T06:35:38;21.40;33.30
72604;DHT22;60645;56.968;24.196;2023-05-01T06:38:05;21.70;33.40
72604;DHT22;60645;56.968;24.196;2023-05-01T06:40:34;21.60;33.50
72604;DHT22;60645;56.968;24.196;2023-05-01T06:43:02;21.60;33.30
72604;DHT22;60645;56.968;24.196;2023-05-01T06:45:29;21.90;33.20
72604;DHT22;60645;56.968;24.196;2023-05-01T06:47:56;22.40;32.70
72604;DHT22;60645;56.968;24.196;2023-05-01T06:50:23;22.10;33.00
72604;DHT22;60645;56.968;24.196;2023-05-01T06:52:50;22.20;32.00
72604;DHT22;60645;56.968;24.196;2023-05-01T06:55:17;22.30;32.50
72604;DHT22;60645;56.968;24.196;2023-05-01T06:57:44;22.90;32.00
72604;DHT22;60645;56.968;24.196;2023-05-01T07:00:11;22.90;31.90
72604;DHT22;60645;56.968;24.196;2023-05-01T07:02:38;22.30;32.10
72604;DHT22;60645;56.968;24.196;2023-05-01T07:05:06;22.70;32.40
72604;DHT22;60645;56.968;24.196;2023-05-01T07:07:33;22.80;31.50
72604;DHT22;60645;56.968;24.196;2023-05-01T07:10:04;22.60;31.70
72604;DHT22;60645;56.968;24.196;2023-05-01T07:12:31;22.70;31.00
72604;DHT22;60645;56.968;24.196;2023-05-01T07:14:58;23.00;31.10
72604;DHT22;60645;56.968;24.196;2023-05-01T07:17:28;23.30;29.20
72604;DHT22;60645;56.968;24.196;2023-05-01T07:19:54;23.40;29.10
72604;DHT22;60645;56.968;24.196;2023-05-01T07:22:22;23.20;30.30
72604;DHT22;60645;56.968;24.196;2023-05-01T07:24:49;23.20;30.30
72604;DHT22;60645;56.968;24.196;2023-05-01T07:27:16;23.20;30.50
72604;DHT22;60645;56.968;24.196;2023-05-01T07:29:43;23.00;29.80
72604;DHT22;60645;56.968;24.196;2023-05-01T07:32:12;23.50;30.40
72604;DHT22;60645;56.968;24.196;2023-05-01T07:34:40;23.50;30.30
72604;DHT22;60645;56.968;24.196;2023-05-01T07:37:06;23.50;29.30
72604;DHT22;60645;56.968;24.196;2023-05-01T07:39:33;23.90;29.60
72604;DHT22;60645;56.968;24.196;2023-05-01T07:42:00;23.90;29.60
72604;DHT22;60645;56.968;24.196;2023-05-01T07:44:27;23.70;29.30
72604;DHT22;60645;56.968;24.196;2023-05-01T07:46:54;24.10;29.40
72604;DHT22;60645;56.968;24.196;2023-05-01T07:49:21;24.10;28.80
72604;DHT22;60645;56.968;24.196;2023-05-01T07:51:48;23.70;28.10
72604;DHT22;60645;56.968;24.196;2023-05-01T07:54:15;23.80;28.60
72604;DHT22;60645;56.968;24.196;2023-05-01T07:56:42;24.10;28.70
72604;DHT22;60645;56.968;24.196;2023-05-01T07:59:09;24.20;28.70
72604;DHT22;60645;56.968;24.196;2023-05-01T08:01:36;24.10;28.50
72604;DHT22;60645;56.968;24.196;2023-05-01T08:04:03;24.10;28.80
72604;DHT22;60645;56.968;24.196;2023-05-01T08:06:30;24.70;28.40
72604;DHT22;60645;56.968;24.196;2023-05-01T08:08:57;25.00;27.50
72604;DHT22;60645;56.968;24.196;2023-05-01T08:11:25;24.60;28.20
72604;DHT22;60645;56.968;24.196;2023-05-01T08:13:52;24.40;28.30
72604;DHT22;60645;56.968;24.196;2023-05-01T08:16:19;24.40;28.70
72604;DHT22;60645;56.968;24.196;2023-05-01T08:18:47;24.60;28.30
72604;DHT22;60645;56.968;24.196;2023-05-01T08:21:14;24.80;28.60
72604;DHT22;60645;56.968;24.196;2023-05-01T08:23:41;24.70;29.00
72604;DHT22;60645;56.968;24.196;2023-05-01T08:26:08;24.80;29.40
72604;DHT22;60645;56.968;24.196;2023-05-01T08:28:35;24.90;28.10
72604;DHT22;60645;56.968;24.196;2023-05-01T08:31:02;24.80;28.90
72604;DHT22;60645;56.968;24.196;2023-05-01T08:33:29;25.10;29.20
72604;DHT22;60645;56.968;24.196;2023-05-01T08:35:56;25.10;29.30
72604;DHT22;60645;56.968;24.196;2023-05-01T08:38:23;25.40;28.20
72604;DHT22;60645;56.968;24.196;2023-05-01T08:40:51;25.00;28.60
72604;DHT22;60645;56.968;24.196;2023-05-01T08:43:19;24.70;29.10
72604;DHT22;60645;56.968;24.196;2023-05-01T08:45:47;24.90;28.10
72604;DHT22;60645;56.968;24.196;2023-05-01T08:48:15;25.50;27.80
72604;DHT22;60645;56.968;24.196;2023-05-01T08:50:45;25.40;28.40
72604;DHT22;60645;56.968;24.196;2023-05-01T08:53:18;24.60;28.10
72604;DHT22;60645;56.968;24.196;2023-05-01T08:55:47;24.40;28.40
72604;DHT22;60645;56.968;24.196;2023-05-01T08:58:16;24.70;29.80
72604;DHT22;60645;56.968;24.196;2023-05-01T09:00:45;24.30;28.70
72604;DHT22;60645;56.968;24.196;2023-05-01T09:03:13;23.70;29.50
72604;DHT22;60645;56.968;24.196;2023-05-01T09:05:40;24.60;28.90
72604;DHT22;60645;56.968;24.196;2023-05-01T09:08:07;25.20;28.60
72604;DHT22;60645;56.968;24.196;2023-05-01T09:10:41;26.10;28.00
72604;DHT22;60645;56.968;24.196;2023-05-01T09:13:10;26.00;28.20
72604;DHT22;60645;56.968;24.196;2023-05-01T09:15:38;26.60;28.50
72604;DHT22;60645;56.968;24.196;2023-05-01T09:18:07;27.50;27.50
72604;DHT22;60645;56.968;24.196;2023-05-01T09:20:35;27.30;28.20
72604;DHT22;60645;56.968;24.196;2023-05-01T09:23:03;27.60;27.60
72604;DHT22;60645;56.968;24.196;2023-05-01T09:25:30;27.70;27.50
72604;DHT22;60645;56.968;24.196;2023-05-01T09:27:57;27.40;27.00
72604;DHT22;60645;56.968;24.196;2023-05-01T09:30:31;27.80;27.40
72604;DHT22;60645;56.968;24.196;2023-05-01T09:33:08;26.50;28.10
72604;DHT22;60645;56.968;24.196;2023-05-01T09:38:18;24.90;27.40
72604;DHT22;60645;56.968;24.196;2023-05-01T09:40:45;24.10;28.40
72604;DHT22;60645;56.968;24.196;2023-05-01T09:43:12;22.90;28.40
72604;DHT22;60645;56.968;24.196;2023-05-01T09:45:40;22.20;29.40
72604;DHT22;60645;56.968;24.196;2023-05-01T09:48:08;22.20;30.00
72604;DHT22;60645;56.968;24.196;2023-05-01T09:50:39;22.50;29.50
72604;DHT22;60645;56.968;24.196;2023-05-01T09:53:07;22.50;30.00
72604;DHT22;60645;56.968;24.196;2023-05-01T09:55:34;22.60;30.70
72604;DHT22;60645;56.968;24.196;2023-05-01T09:58:01;23.00;30.00
72604;DHT22;60645;56.968;24.196;2023-05-01T10:00:29;22.10;30.80
72604;DHT22;60645;56.968;24.196;2023-05-01T10:02:56;21.50;31.50
72604;DHT22;60645;56.968;24.196;2023-05-01T10:05:23;20.80;31.70
72604;DHT22;60645;56.968;24.196;2023-05-01T10:08:00;20.50;32.00
72604;DHT22;60645;56.968;24.196;2023-05-01T10:10:27;20.30;32.30
72604;DHT22;60645;56.968;24.196;2023-05-01T10:12:54;21.90;30.90
72604;DHT22;60645;56.968;24.196;2023-05-01T10:15:21;23.50;30.60
72604;DHT22;60645;56.968;24.196;2023-05-01T10:17:51;24.20;30.30
72604;DHT22;60645;56.968;24.196;2023-05-01T10:20:21;26.40;29.10
72604;DHT22;60645;56.968;24.196;2023-05-01T10:22:48;26.30;29.00
72604;DHT22;60645;56.968;24.196;2023-05-01T10:25:15;24.90;29.80
72604;DHT22;60645;56.968;24.196;2023-05-01T10:27:43;23.80;30.90
72604;DHT22;60645;56.968;24.196;2023-05-01T10:30:09;23.00;30.90
72604;DHT22;60645;56.968;24.196;2023-05-01T10:32:37;21.80;31.40
72604;DHT22;60645;56.968;24.196;2023-05-01T10:35:06;20.70;31.90
72604;DHT22;60645;56.968;24.196;2023-05-01T10:37:38;19.80;32.60
72604;DHT22;60645;56.968;24.196;2023-05-01T10:43:12;19.50;33.90
72604;DHT22;60645;56.968;24.196;2023-05-01T10:45:38;19.40;33.70
72604;DHT22;60645;56.968;24.196;2023-05-01T10:48:05;19.50;33.40
72604;DHT22;60645;56.968;24.196;2023-05-01T10:50:33;19.40;33.40
72604;DHT22;60645;56.968;24.196;2023-05-01T10:55:46;18.90;34.60
72604;DHT22;60645;56.968;24.196;2023-05-01T10:58:14;19.00;33.90
72604;DHT22;60645;56.968;24.196;2023-05-01T11:01:42;18.90;34.60
72604;DHT22;60645;56.968;24.196;2023-05-01T11:03:50;18.70;34.40
72604;DHT22;60645;56.968;24.196;2023-05-01T11:06:17;18.30;35.60
72604;DHT22;60645;56.968;24.196;2023-05-01T11:08:44;18.20;35.70
72604;DHT22;60645;56.968;24.196;2023-05-01T11:13:55;18.00;36.50
72604;DHT22;60645;56.968;24.196;2023-05-01T11:21:47;20.60;34.20
72604;DHT22;60645;56.968;24.196;2023-05-01T11:24:14;20.40;34.80
72604;DHT22;60645;56.968;24.196;2023-05-01T11:26:41;20.30;34.30
72604;DHT22;60645;56.968;24.196;2023-05-01T11:29:09;19.40;35.70
72604;DHT22;60645;56.968;24.196;2023-05-01T11:31:36;19.00;36.30
72604;DHT22;60645;56.968;24.196;2023-05-01T11:34:03;18.50;37.30
72604;DHT22;60645;56.968;24.196;2023-05-01T11:36:48;18.20;37.40
72604;DHT22;60645;56.968;24.196;2023-05-01T11:39:15;18.20;37.70
72604;DHT22;60645;56.968;24.196;2023-05-01T11:41:42;17.70;38.40
72604;DHT22;60645;56.968;24.196;2023-05-01T11:44:16;17.30;40.20
72604;DHT22;60645;56.968;24.196;2023-05-01T11:46:43;17.10;39.60
72604;DHT22;60645;56.968;24.196;2023-05-01T11:49:10;17.00;40.40
72604;DHT22;60645;56.968;24.196;2023-05-01T11:51:37;16.80;39.90
72604;DHT22;60645;56.968;24.196;2023-05-01T11:54:04;16.90;39.90
72604;DHT22;60645;56.968;24.196;2023-05-01T11:56:32;16.80;40.00
72604;DHT22;60645;56.968;24.196;2023-05-01T11:58:59;16.80;39.90
72604;DHT22;60645;56.968;24.196;2023-05-01T12:01:35;16.80;39.90
72604;DHT22;60645;56.968;24.196;2023-05-01T12:04:02;16.60;40.70
72604;DHT22;60645;56.968;24.196;2023-05-01T12:06:39;16.60;40.40
72604;DHT22;60645;56.968;24.196;2023-05-01T12:09:19;16.40;40.50
72604;DHT22;60645;56.968;24.196;2023-05-01T12:11:46;16.50;41.30
72604;DHT22;60645;56.968;24.196;2023-05-01T12:14:15;16.40;41.30
72604;DHT22;60645;56.968;24.196;2023-05-01T12:16:42;16.30;40.90
72604;DHT22;60645;56.968;24.196;2023-05-01T12:19:11;16.20;41.40
72604;DHT22;60645;56.968;24.196;2023-05-01T12:21:38;16.10;41.30
72604;DHT22;60645;56.968;24.196;2023-05-01T12:24:12;15.90;41.70
72604;DHT22;60645;56.968;24.196;2023-05-01T12:26:43;15.60;42.50
72604;DHT22;60645;56.968;24.196;2023-05-01T12:29:10;15.60;43.10
72604;DHT22;60645;56.968;24.196;2023-05-01T12:31:47;15.40;44.20
72604;DHT22;60645;56.968;24.196;2023-05-01T12:34:14;15.40;44.90
72604;DHT22;60645;56.968;24.196;2023-05-01T12:36:41;15.30;46.30
72604;DHT22;60645;56.968;24.196;2023-05-01T12:39:18;15.10;45.90
72604;DHT22;60645;56.968;24.196;2023-05-01T12:41:46;15.00;46.10
72604;DHT22;60645;56.968;24.196;2023-05-01T12:44:26;15.00;45.00
72604;DHT22;60645;56.968;24.196;2023-05-01T12:49:23;15.30;45.30
72604;DHT22;60645;56.968;24.196;2023-05-01T12:51:51;15.30;44.80
72604;DHT22;60645;56.968;24.196;2023-05-01T12:54:18;15.60;44.50
72604;DHT22;60645;56.968;24.196;2023-05-01T12:56:45;15.80;43.60
72604;DHT22;60645;56.968;24.196;2023-05-01T12:59:19;16.00;44.00
72604;DHT22;60645;56.968;24.196;2023-05-01T13:01:46;15.90;43.50
72604;DHT22;60645;56.968;24.196;2023-05-01T13:04:19;15.70;44.80
72604;DHT22;60645;56.968;24.196;2023-05-01T13:06:46;15.50;44.20
72604;DHT22;60645;56.968;24.196;2023-05-01T13:09:14;15.40;45.40
72604;DHT22;60645;56.968;24.196;2023-05-01T13:11:42;15.10;44.80
72604;DHT22;60645;56.968;24.196;2023-05-01T13:14:21;14.90;46.10
72604;DHT22;60645;56.968;24.196;2023-05-01T13:16:48;14.80;45.70
72604;DHT22;60645;56.968;24.196;2023-05-01T13:19:26;14.70;46.00
72604;DHT22;60645;56.968;24.196;2023-05-01T13:21:55;14.70;45.70
72604;DHT22;60645;56.968;24.196;2023-05-01T13:24:43;14.70;44.40
72604;DHT22;60645;56.968;24.196;2023-05-01T13:27:10;14.90;44.80
72604;DHT22;60645;56.968;24.196;2023-05-01T13:29:37;14.90;44.60
72604;DHT22;60645;56.968;24.196;2023-05-01T13:32:04;15.00;44.40
72604;DHT22;60645;56.968;24.196;2023-05-01T13:34:32;15.10;44.10
72604;DHT22;60645;56.968;24.196;2023-05-01T13:37:00;15.00;43.90
72604;DHT22;60645;56.968;24.196;2023-05-01T13:39:27;14.90;44.00
72604;DHT22;60645;56.968;24.196;2023-05-01T13:41:53;14.90;42.70
72604;DHT22;60645;56.968;24.196;2023-05-01T13:44:21;14.90;42.50
72604;DHT22;60645;56.968;24.196;2023-05-01T13:46:48;14.90;42.30
72604;DHT22;60645;56.968;24.196;2023-05-01T13:49:16;15.10;41.40
72604;DHT22;60645;56.968;24.196;2023-05-01T13:51:43;15.10;41.80
72604;DHT22;60645;56.968;24.196;2023-05-01T13:54:12;15.10;41.10
72604;DHT22;60645;56.968;24.196;2023-05-01T13:56:39;15.00;39.20
72604;DHT22;60645;56.968;24.196;2023-05-01T13:59:06;15.10;40.90
72604;DHT22;60645;56.968;24.196;2023-05-01T14:01:36;15.10;40.20
72604;DHT22;60645;56.968;24.196;2023-05-01T14:04:05;15.00;40.70
72604;DHT22;60645;56.968;24.196;2023-05-01T14:06:33;15.10;42.60
72604;DHT22;60645;56.968;24.196;2023-05-01T14:09:02;15.00;42.60
72604;DHT22;60645;56.968;24.196;2023-05-01T14:11:31;14.80;43.20
72604;DHT22;60645;56.968;24.196;2023-05-01T14:13:57;14.50;43.80
72604;DHT22;60645;56.968;24.196;2023-05-01T14:16:26;14.40;44.20
72604;DHT22;60645;56.968;24.196;2023-05-01T14:18:54;14.40;43.80
72604;DHT22;60645;56.968;24.196;2023-05-01T14:21:23;14.40;43.50
72604;DHT22;60645;56.968;24.196;2023-05-01T14:23:50;14.50;43.20
72604;DHT22;60645;56.968;24.196;2023-05-01T14:26:19;14.60;43.00
72604;DHT22;60645;56.968;24.196;2023-05-01T14:28:46;14.70;43.20
72604;DHT22;60645;56.968;24.196;2023-05-01T14:31:23;14.70;44.10
72604;DHT22;60645;56.968;24.196;2023-05-01T14:33:51;14.80;43.90
72604;DHT22;60645;56.968;24.196;2023-05-01T14:36:19;14.80;44.10
72604;DHT22;60645;56.968;24.196;2023-05-01T14:38:46;14.90;44.30
72604;DHT22;60645;56.968;24.196;2023-05-01T14:41:17;14.70;43.80
72604;DHT22;60645;56.968;24.196;2023-05-01T14:43:47;14.60;42.90
72604;DHT22;60645;56.968;24.196;2023-05-01T14:46:18;14.70;42.30
72604;DHT22;60645;56.968;24.196;2023-05-01T14:48:47;14.70;42.90
72604;DHT22;60645;56.968;24.196;2023-05-01T14:51:14;14.80;42.90
72604;DHT22;60645;56.968;24.196;2023-05-01T14:53:44;14.90;42.90
72604;DHT22;60645;56.968;24.196;2023-05-01T14:56:11;14.70;43.30
72604;DHT22;60645;56.968;24.196;2023-05-01T14:58:38;14.70;43.60
72604;DHT22;60645;56.968;24.196;2023-05-01T15:01:04;14.50;44.80
72604;DHT22;60645;56.968;24.196;2023-05-01T15:03:32;14.60;44.10
72604;DHT22;60645;56.968;24.196;2023-05-01T15:06:01;14.50;45.20
72604;DHT22;60645;56.968;24.196;2023-05-01T15:08:29;14.50;45.50
72604;DHT22;60645;56.968;24.196;2023-05-01T15:10:58;14.50;46.20
72604;DHT22;60645;56.968;24.196;2023-05-01T15:13:25;14.40;45.70
72604;DHT22;60645;56.968;24.196;2023-05-01T15:15:52;14.50;46.80
72604;DHT22;60645;56.968;24.196;2023-05-01T15:18:21;14.50;46.70
72604;DHT22;60645;56.968;24.196;2023-05-01T15:20:47;14.50;46.60
72604;DHT22;60645;56.968;24.196;2023-05-01T15:23:14;14.40;47.20
72604;DHT22;60645;56.968;24.196;2023-05-01T15:25:41;14.40;47.10
72604;DHT22;60645;56.968;24.196;2023-05-01T15:28:13;14.30;47.40
72604;DHT22;60645;56.968;24.196;2023-05-01T15:30:43;14.20;48.40
72604;DHT22;60645;56.968;24.196;2023-05-01T15:33:10;14.10;48.20
72604;DHT22;60645;56.968;24.196;2023-05-01T15:35:37;14.10;47.40
72604;DHT22;60645;56.968;24.196;2023-05-01T15:38:04;13.90;48.80
72604;DHT22;60645;56.968;24.196;2023-05-01T15:40:31;13.90;49.50
72604;DHT22;60645;56.968;24.196;2023-05-01T15:42:59;13.80;49.90
72604;DHT22;60645;56.968;24.196;2023-05-01T15:45:26;13.70;50.10
72604;DHT22;60645;56.968;24.196;2023-05-01T15:47:53;13.70;50.70
72604;DHT22;60645;56.968;24.196;2023-05-01T15:50:20;13.80;49.00
72604;DHT22;60645;56.968;24.196;2023-05-01T15:52:49;13.90;48.40
72604;DHT22;60645;56.968;24.196;2023-05-01T15:55:16;13.80;49.30
72604;DHT22;60645;56.968;24.196;2023-05-01T15:57:46;13.80;49.80
72604;DHT22;60645;56.968;24.196;2023-05-01T16:00:14;13.70;50.60
72604;DHT22;60645;56.968;24.196;2023-05-01T16:02:42;13.50;50.20
72604;DHT22;60645;56.968;24.196;2023-05-01T16:05:10;13.50;50.40
72604;DHT22;60645;56.968;24.196;2023-05-01T16:07:37;13.50;49.60
72604;DHT22;60645;56.968;24.196;2023-05-01T16:10:06;13.50;49.60